Time;durP1;ratioP1;P1;durP2;ratioP2;P2;SDS_P1;SDS_P2;PMS_P1;PMS_P2;Temp;Humidity;BMP_temperature;BMP_pressure;BME280_temperature;BME280_humidity;BME280_pressure;Samples;Min_cycle;Max_cycle;Signal;HPM_P1;HPM_P2
2023/11/23 00:02:01;;;;;;;11.98;8.48;;;;;;;;;;4995082;28;20026;-79
2023/11/23 00:04:27;;;;;;;12.90;8.35;;;;;;;;;;5007766;28;20396;-77
2023/11/23 00:06:53;;;;;;;12.88;8.95;;;;;;;;;;5020370;28;20022;-78
2023/11/23 00:09:19;;;;;;;11.60;8.13;;;;;;;;;;5028380;22;20057;-81
2023/11/23 00:11:45;;;;;;;11.20;7.88;;;;;;;;;;4995874;28;20030;-83
2023/11/23 00:14:11;;;;;;;9.60;6.43;;;;;;;;;;4998672;28;20105;-81
2023/11/23 00:16:37;;;;;;;10.63;6.68;;;;;;;;;;5007933;28;20038;-81
2023/11/23 00:19:05;;;;;;;7.45;5.65;;;;;;;;;;4998235;28;20477;-81
2023/11/23 00:21:31;;;;;;;7.85;5.57;;;;;;;;;;5005050;28;20505;-81
2023/11/23 00:23:57;;;;;;;10.70;6.78;;;;;;;;;;5000336;28;20073;-82
2023/11/23 00:26:23;;;;;;;13.32;7.65;;;;;;;;;;4989183;28;20088;-81
2023/11/23 00:28:49;;;;;;;11.63;7.00;;;;;;;;;;4997252;28;20080;-81
2023/11/23 00:31:17;;;;;;;12.00;7.63;;;;;;;;;;4997177;28;20022;-82
2023/11/23 00:33:43;;;;;;;11.35;7.90;;;;;;;;;;4997493;28;20026;-81
2023/11/23 00:36:09;;;;;;;13.15;7.97;;;;;;;;;;4996504;28;20022;-80
2023/11/23 00:38:36;;;;;;;15.25;9.05;;;;;;;;;;4998272;28;20019;-81
2023/11/23 00:41:02;;;;;;;16.05;9.48;;;;;;;;;;4997486;28;20023;-81
2023/11/23 00:43:28;;;;;;;12.88;8.52;;;;;;;;;;4996132;28;20458;-82
2023/11/23 00:45:54;;;;;;;13.70;9.30;;;;;;;;;;4997375;28;20477;-81
2023/11/23 00:48:21;;;;;;;12.48;8.65;;;;;;;;;;4997244;28;20041;-81
2023/11/23 00:50:47;;;;;;;18.15;11.18;;;;;;;;;;4997283;28;20042;-80
2023/11/23 00:53:13;;;;;;;19.45;11.65;;;;;;;;;;4996992;28;20484;-82
2023/11/23 00:55:39;;;;;;;17.08;11.20;;;;;;;;;;4999539;28;20030;-81
2023/11/23 00:58:05;;;;;;;14.93;10.05;;;;;;;;;;4999409;28;20030;-81
2023/11/23 01:00:31;;;;;;;13.80;9.40;;;;;;;;;;4997765;28;20114;-79
2023/11/23 01:02:57;;;;;;;13.10;8.25;;;;;;;;;;5001663;28;20026;-81
2023/11/23 01:05:24;;;;;;;13.30;8.15;;;;;;;;;;4991292;28;20377;-81
2023/11/23 01:07:50;;;;;;;11.88;8.15;;;;;;;;;;5011827;28;20106;-84
2023/11/23 01:10:16;;;;;;;10.45;7.65;;;;;;;;;;5007713;28;20492;-81
2023/11/23 01:12:43;;;;;;;13.82;9.25;;;;;;;;;;4999277;28;20019;-81
2023/11/23 01:15:09;;;;;;;20.63;13.55;;;;;;;;;;4995899;28;20472;-80
2023/11/23 01:17:36;;;;;;;18.35;11.63;;;;;;;;;;4992121;28;20026;-80
2023/11/23 01:20:05;;;;;;;18.90;13.25;;;;;;;;;;4994869;28;20030;-81
2023/11/23 01:22:31;;;;;;;21.08;13.20;;;;;;;;;;5008219;28;20010;-84
2023/11/23 01:24:57;;;;;;;22.15;14.13;;;;;;;;;;5003305;28;20433;-81
2023/11/23 01:27:24;;;;;;;22.05;13.73;;;;;;;;;;4995175;28;20031;-82
2023/11/23 01:29:50;;;;;;;19.95;11.55;;;;;;;;;;4995545;28;20026;-81
2023/11/23 01:32:16;;;;;;;22.27;13.02;;;;;;;;;;4994484;28;20071;-81
2023/11/23 01:34:42;;;;;;;21.13;13.52;;;;;;;;;;4996790;28;20027;-79
2023/11/23 01:37:08;;;;;;;20.05;13.00;;;;;;;;;;4996128;28;20018;-82
2023/11/23 01:39:34;;;;;;;21.17;13.38;;;;;;;;;;4992997;28;20021;-81
2023/11/23 01:42:00;;;;;;;20.27;12.60;;;;;;;;;;4997849;28;20098;-81
2023/11/23 01:44:26;;;;;;;19.67;11.98;;;;;;;;;;4999970;28;20043;-80
2023/11/23 01:46:53;;;;;;;23.80;14.13;;;;;;;;;;5000074;28;20381;-81
2023/11/23 01:49:20;;;;;;;20.55;12.60;;;;;;;;;;4992950;28;20023;-81
2023/11/23 01:51:46;;;;;;;18.88;11.48;;;;;;;;;;4992835;28;20034;-82
2023/11/23 01:54:12;;;;;;;19.58;12.23;;;;;;;;;;4997403;28;20033;-81
2023/11/23 01:56:40;;;;;;;19.65;12.23;;;;;;;;;;4997531;28;20390;-80
2023/11/23 01:59:06;;;;;;;16.88;11.18;;;;;;;;;;5015002;28;20022;-84
2023/11/23 02:01:32;;;;;;;19.80;12.60;;;;;;;;;;5016164;28;20050;-84
2023/11/23 02:03:58;;;;;;;19.42;12.05;;;;;;;;;;4996474;28;20030;-81
2023/11/23 02:06:24;;;;;;;18.00;11.30;;;;;;;;;;5010154;28;20038;-83
2023/11/23 02:08:50;;;;;;;15.65;9.98;;;;;;;;;;5019297;28;20042;-82
2023/11/23 02:11:17;;;;;;;13.23;8.77;;;;;;;;;;5004334;28;20066;-79
2023/11/23 02:13:43;;;;;;;14.90;8.65;;;;;;;;;;5015683;28;20073;-83
2023/11/23 02:16:09;;;;;;;12.23;8.00;;;;;;;;;;5003102;28;20030;-80
2023/11/23 02:18:37;;;;;;;11.63;7.45;;;;;;;;;;5013963;28;20018;-81
2023/11/23 02:21:03;;;;;;;16.38;10.70;;;;;;;;;;5010517;28;20086;-81
2023/11/23 02:23:30;;;;;;;11.80;8.30;;;;;;;;;;5005324;28;20026;-80
2023/11/23 02:25:57;;;;;;;14.15;9.50;;;;;;;;;;4999440;28;20029;-82
2023/11/23 02:28:23;;;;;;;14.00;8.95;;;;;;;;;;5007449;28;20073;-80
2023/11/23 02:30:49;;;;;;;12.85;8.48;;;;;;;;;;4992244;28;20465;-80
2023/11/23 02:33:15;;;;;;;11.15;7.18;;;;;;;;;;4999575;28;20456;-80
2023/11/23 02:35:41;;;;;;;10.77;7.07;;;;;;;;;;4999325;28;20027;-81
2023/11/23 02:38:07;;;;;;;11.27;7.88;;;;;;;;;;4999774;28;20018;-81
2023/11/23 02:40:33;;;;;;;11.80;7.72;;;;;;;;;;4999440;28;20018;-81
2023/11/23 02:42:59;;;;;;;13.13;9.77;;;;;;;;;;4997727;28;20073;-81
2023/11/23 02:45:26;;;;;;;13.88;9.13;;;;;;;;;;4999083;28;20109;-81
2023/11/23 02:47:52;;;;;;;14.13;9.50;;;;;;;;;;4997212;28;20137;-81
2023/11/23 02:50:18;;;;;;;11.18;7.88;;;;;;;;;;5007838;28;20077;-80
2023/11/23 02:52:45;;;;;;;14.73;9.90;;;;;;;;;;4998346;28;20053;-81
2023/11/23 02:55:11;;;;;;;17.25;10.00;;;;;;;;;;4990373;28;20061;-80
2023/11/23 02:57:37;;;;;;;14.50;9.73;;;;;;;;;;5005855;28;20492;-79
2023/11/23 03:00:04;;;;;;;15.00;9.65;;;;;;;;;;4996897;28;20033;-82
2023/11/23 03:02:30;;;;;;;13.50;8.23;;;;;;;;;;5009824;28;20021;-79
2023/11/23 03:04:56;;;;;;;11.75;7.45;;;;;;;;;;5002240;28;20023;-80
2023/11/23 03:07:22;;;;;;;14.52;8.73;;;;;;;;;;4997663;28;20388;-80
2023/11/23 03:09:49;;;;;;;17.83;10.45;;;;;;;;;;4998444;28;20109;-82
2023/11/23 03:12:15;;;;;;;14.57;9.18;;;;;;;;;;4999037;28;20027;-81
2023/11/23 03:14:41;;;;;;;16.58;9.63;;;;;;;;;;5005360;28;20038;-80
2023/11/23 03:17:07;;;;;;;16.50;9.70;;;;;;;;;;4997618;28;20015;-81
2023/11/23 03:19:33;;;;;;;15.35;9.40;;;;;;;;;;5004925;28;20033;-80
2023/11/23 03:21:59;;;;;;;15.07;9.30;;;;;;;;;;4995045;28;20512;-82
2023/11/23 03:24:26;;;;;;;13.80;9.35;;;;;;;;;;4996353;28;20046;-81
2023/11/23 03:26:52;;;;;;;12.57;8.32;;;;;;;;;;4996301;28;20037;-82
2023/11/23 03:29:18;;;;;;;11.15;7.40;;;;;;;;;;4998146;28;20030;-81
2023/11/23 03:31:44;;;;;;;12.45;7.80;;;;;;;;;;4997754;28;20019;-81
2023/11/23 03:34:10;;;;;;;13.85;9.20;;;;;;;;;;4996496;28;20041;-81
2023/11/23 03:36:36;;;;;;;15.45;10.05;;;;;;;;;;4997134;28;20018;-82
2023/11/23 03:39:02;;;;;;;15.77;9.73;;;;;;;;;;4997200;28;20018;-83
2023/11/23 03:41:28;;;;;;;15.93;9.43;;;;;;;;;;5001414;28;20488;-81
2023/11/23 03:43:57;;;;;;;15.68;9.57;;;;;;;;;;4998416;28;20035;-82
2023/11/23 03:46:23;;;;;;;15.77;9.48;;;;;;;;;;4996134;28;20100;-82
2023/11/23 03:48:49;;;;;;;13.80;9.20;;;;;;;;;;4997959;28;20038;-81
2023/11/23 03:51:15;;;;;;;14.63;8.55;;;;;;;;;;4996725;28;20034;-81
2023/11/23 03:53:42;;;;;;;13.85;8.95;;;;;;;;;;4998069;28;20027;-82
2023/11/23 03:56:13;;;;;;;11.95;8.43;;;;;;;;;;4987967;28;20053;-81
2023/11/23 03:58:39;;;;;;;14.48;9.98;;;;;;;;;;5000696;28;20033;-82
2023/11/23 04:01:06;;;;;;;14.60;9.45;;;;;;;;;;5008081;28;20041;-83
2023/11/23 04:03:32;;;;;;;13.38;9.05;;;;;;;;;;4989872;28;20026;-82
2023/11/23 04:05:58;;;;;;;13.55;8.48;;;;;;;;;;5005728;28;20022;-83
2023/11/23 04:08:24;;;;;;;15.30;9.43;;;;;;;;;;5008031;28;20027;-80
2023/11/23 04:10:51;;;;;;;14.38;9.38;;;;;;;;;;5002425;28;20031;-84
2023/11/23 04:13:17;;;;;;;14.68;9.85;;;;;;;;;;5000990;28;20157;-84
2023/11/23 04:15:45;;;;;;;16.38;9.35;;;;;;;;;;5006034;28;20030;-82
2023/11/23 04:18:11;;;;;;;14.38;8.80;;;;;;;;;;5006602;28;20033;-83
2023/11/23 04:20:37;;;;;;;12.93;8.23;;;;;;;;;;5003852;28;20031;-82
2023/11/23 04:23:03;;;;;;;16.27;10.85;;;;;;;;;;5017379;28;20022;-82
2023/11/23 04:25:29;;;;;;;17.42;10.50;;;;;;;;;;4985911;28;20033;-81
2023/11/23 04:27:57;;;;;;;15.43;9.90;;;;;;;;;;5000944;28;20084;-83
2023/11/23 04:30:24;;;;;;;15.27;9.00;;;;;;;;;;5011054;28;20050;-80
2023/11/23 04:32:50;;;;;;;15.40;9.70;;;;;;;;;;5010870;28;20061;-81
2023/11/23 04:35:16;;;;;;;14.38;8.15;;;;;;;;;;4998849;28;20034;-81
2023/11/23 04:37:42;;;;;;;12.60;7.95;;;;;;;;;;5007499;28;20471;-82
2023/11/23 04:40:10;;;;;;;12.05;7.68;;;;;;;;;;5015505;28;20109;-82
2023/11/23 04:42:37;;;;;;;11.63;7.60;;;;;;;;;;5003105;28;20447;-83
2023/11/23 04:45:04;;;;;;;11.98;7.43;;;;;;;;;;5005884;28;20069;-82
2023/11/23 04:47:30;;;;;;;9.90;6.57;;;;;;;;;;4992663;28;20026;-81
2023/11/23 04:49:56;;;;;;;9.93;6.57;;;;;;;;;;4999513;28;20049;-82
2023/11/23 04:52:22;;;;;;;14.32;8.73;;;;;;;;;;5000893;28;20044;-83
2023/11/23 04:54:48;;;;;;;12.52;8.50;;;;;;;;;;4999208;28;20072;-82
2023/11/23 04:57:14;;;;;;;13.57;8.27;;;;;;;;;;5000433;28;20025;-83
2023/11/23 04:59:40;;;;;;;14.68;8.93;;;;;;;;;;4999948;28;20061;-82
2023/11/23 05:02:06;;;;;;;13.10;8.15;;;;;;;;;;4998518;28;20477;-82
2023/11/23 05:04:32;;;;;;;10.90;7.70;;;;;;;;;;4998458;28;20060;-82
2023/11/23 05:06:59;;;;;;;10.18;6.78;;;;;;;;;;4999698;28;20022;-83
2023/11/23 05:09:25;;;;;;;13.05;8.40;;;;;;;;;;4999903;28;20045;-82
2023/11/23 05:11:51;;;;;;;14.07;7.88;;;;;;;;;;5007815;28;20022;-83
2023/11/23 05:14:17;;;;;;;11.93;7.97;;;;;;;;;;5017076;28;20018;-83
2023/11/23 05:16:44;;;;;;;10.50;7.55;;;;;;;;;;5008822;28;20061;-82
2023/11/23 05:19:10;;;;;;;11.45;6.75;;;;;;;;;;5002555;28;20034;-83
2023/11/23 05:21:36;;;;;;;10.68;7.50;;;;;;;;;;5017741;28;20024;-84
2023/11/23 05:24:04;;;;;;;12.10;7.95;;;;;;;;;;5011787;28;20065;-79
2023/11/23 05:26:30;;;;;;;11.00;7.15;;;;;;;;;;4997446;28;20045;-78
2023/11/23 05:28:56;;;;;;;9.48;6.78;;;;;;;;;;5004731;28;20061;-78
2023/11/23 05:31:22;;;;;;;11.95;7.57;;;;;;;;;;4986450;28;20109;-78
2023/11/23 05:33:48;;;;;;;12.20;8.02;;;;;;;;;;4995513;28;20027;-77
2023/11/23 05:36:15;;;;;;;11.10;7.43;;;;;;;;;;4988789;28;20027;-78
2023/11/23 05:38:41;;;;;;;11.73;8.27;;;;;;;;;;4990333;28;20053;-79
2023/11/23 05:41:07;;;;;;;14.15;8.95;;;;;;;;;;4995224;28;20026;-77
2023/11/23 05:43:33;;;;;;;14.38;9.18;;;;;;;;;;5007506;28;20034;-78
2023/11/23 05:46:00;;;;;;;17.40;10.57;;;;;;;;;;4998368;28;20022;-78
2023/11/23 05:48:26;;;;;;;15.23;9.95;;;;;;;;;;4996698;28;20031;-78
2023/11/23 05:50:52;;;;;;;13.25;8.73;;;;;;;;;;4996198;28;20109;-78
2023/11/23 05:53:18;;;;;;;12.02;8.52;;;;;;;;;;5005688;28;20047;-78
2023/11/23 05:55:45;;;;;;;11.23;7.22;;;;;;;;;;5009066;28;20034;-78
2023/11/23 05:58:11;;;;;;;14.52;8.57;;;;;;;;;;5000990;28;20022;-78
2023/11/23 06:00:37;;;;;;;15.00;9.38;;;;;;;;;;5011813;28;20035;-79
2023/11/23 06:03:03;;;;;;;14.40;9.82;;;;;;;;;;5010436;28;20049;-79
2023/11/23 06:05:29;;;;;;;14.52;9.43;;;;;;;;;;5006912;28;20027;-84
2023/11/23 06:07:55;;;;;;;12.82;8.68;;;;;;;;;;5006084;28;20026;-82
2023/11/23 06:10:21;;;;;;;12.07;8.05;;;;;;;;;;5050306;22;20446;-80
2023/11/23 06:12:48;;;;;;;14.02;9.40;;;;;;;;;;5041386;28;20155;-79
2023/11/23 06:15:14;;;;;;;13.40;8.23;;;;;;;;;;5042604;28;20033;-77
2023/11/23 06:17:40;;;;;;;13.73;8.13;;;;;;;;;;5038165;28;20026;-78
2023/11/23 06:20:08;;;;;;;10.70;7.38;;;;;;;;;;5034693;28;20451;-78
2023/11/23 06:22:35;;;;;;;10.35;6.80;;;;;;;;;;5049548;28;20029;-79
2023/11/23 06:25:01;;;;;;;9.52;6.57;;;;;;;;;;5027981;28;20077;-79
2023/11/23 06:27:28;;;;;;;10.18;7.00;;;;;;;;;;5024547;28;20030;-79
2023/11/23 06:29:54;;;;;;;10.55;6.90;;;;;;;;;;5022951;28;20037;-80
2023/11/23 06:32:20;;;;;;;12.45;7.95;;;;;;;;;;5025887;28;20022;-79
2023/11/23 06:34:46;;;;;;;9.63;6.68;;;;;;;;;;5030346;28;20021;-79
2023/11/23 06:37:12;;;;;;;10.75;7.38;;;;;;;;;;5033711;28;20091;-80
2023/11/23 06:39:38;;;;;;;12.18;8.18;;;;;;;;;;5028777;28;20029;-78
2023/11/23 06:42:04;;;;;;;12.93;8.98;;;;;;;;;;5042826;28;20029;-78
2023/11/23 06:44:31;;;;;;;13.55;9.00;;;;;;;;;;5053023;28;20026;-79
2023/11/23 06:46:57;;;;;;;12.65;8.20;;;;;;;;;;5034833;28;20084;-80
2023/11/23 06:49:23;;;;;;;12.55;8.43;;;;;;;;;;5039675;28;20030;-80
2023/11/23 06:51:49;;;;;;;11.57;8.02;;;;;;;;;;5047000;28;20079;-79
2023/11/23 06:54:16;;;;;;;12.60;8.20;;;;;;;;;;5040216;28;20099;-80
2023/11/23 06:56:42;;;;;;;11.25;7.57;;;;;;;;;;5037745;28;20018;-78
2023/11/23 06:59:08;;;;;;;11.50;8.15;;;;;;;;;;5029385;28;20042;-78
2023/11/23 07:01:34;;;;;;;11.65;7.93;;;;;;;;;;5025186;28;20037;-77
2023/11/23 07:04:00;;;;;;;12.45;8.32;;;;;;;;;;5041804;28;20427;-78
2023/11/23 07:06:26;;;;;;;14.52;9.43;;;;;;;;;;5035902;28;20091;-78
2023/11/23 07:08:53;;;;;;;13.75;9.75;;;;;;;;;;5040129;28;20026;-77
2023/11/23 07:11:19;;;;;;;13.43;8.38;;;;;;;;;;5017485;28;20018;-77
2023/11/23 07:13:47;;;;;;;13.52;8.02;;;;;;;;;;5033673;28;20017;-77
2023/11/23 07:16:13;;;;;;;12.98;8.70;;;;;;;;;;5018858;28;20041;-77
2023/11/23 07:18:40;;;;;;;13.32;8.13;;;;;;;;;;5017659;28;20029;-76
2023/11/23 07:21:06;;;;;;;11.48;7.65;;;;;;;;;;5027248;28;20388;-78
2023/11/23 07:23:32;;;;;;;11.02;7.35;;;;;;;;;;5025500;28;20022;-77
2023/11/23 07:25:58;;;;;;;8.88;6.05;;;;;;;;;;5019253;28;20036;-76
2023/11/23 07:28:26;;;;;;;11.30;7.55;;;;;;;;;;5023979;28;20353;-77
2023/11/23 07:30:53;;;;;;;9.45;6.82;;;;;;;;;;5039028;28;20029;-81
2023/11/23 07:33:20;;;;;;;9.57;6.88;;;;;;;;;;5054279;28;20026;-83
2023/11/23 07:35:47;;;;;;;10.50;6.85;;;;;;;;;;5056760;28;20036;-81
2023/11/23 07:38:13;;;;;;;7.30;5.43;;;;;;;;;;5058144;28;20063;-79
2023/11/23 07:40:39;;;;;;;9.75;7.25;;;;;;;;;;5036504;28;20029;-80
2023/11/23 07:43:05;;;;;;;11.00;6.85;;;;;;;;;;5038227;28;20480;-80
2023/11/23 07:45:31;;;;;;;11.77;6.63;;;;;;;;;;5045023;28;20056;-79
2023/11/23 07:47:59;;;;;;;9.02;6.40;;;;;;;;;;5031554;28;20030;-80
2023/11/23 07:50:25;;;;;;;9.40;5.90;;;;;;;;;;5034615;28;20021;-80
2023/11/23 07:52:51;;;;;;;8.63;5.45;;;;;;;;;;5042375;28;20052;-78
2023/11/23 07:55:17;;;;;;;8.32;5.82;;;;;;;;;;5046131;28;20013;-78
2023/11/23 07:57:44;;;;;;;8.40;5.57;;;;;;;;;;5036257;28;20014;-78
2023/11/23 08:00:13;;;;;;;10.05;5.88;;;;;;;;;;5043655;28;20032;-78
2023/11/23 08:02:39;;;;;;;7.63;5.25;;;;;;;;;;5051631;28;20018;-79
2023/11/23 08:05:06;;;;;;;7.78;5.47;;;;;;;;;;5046414;28;20026;-77
2023/11/23 08:07:32;;;;;;;10.20;6.20;;;;;;;;;;5049829;28;20026;-80
2023/11/23 08:09:58;;;;;;;9.13;5.93;;;;;;;;;;5033072;28;20049;-80
2023/11/23 08:12:25;;;;;;;7.47;5.10;;;;;;;;;;5030491;28;20060;-79
2023/11/23 08:14:51;;;;;;;6.43;4.55;;;;;;;;;;5042645;28;20029;-79
2023/11/23 08:17:18;;;;;;;7.95;5.10;;;;;;;;;;5028419;28;20045;-78
2023/11/23 08:19:46;;;;;;;10.75;6.80;;;;;;;;;;5042464;28;20032;-77
2023/11/23 08:22:12;;;;;;;9.68;6.30;;;;;;;;;;5037375;28;20026;-79
2023/11/23 08:24:39;;;;;;;9.05;6.13;;;;;;;;;;5035497;28;20026;-79
2023/11/23 08:27:05;;;;;;;7.95;5.68;;;;;;;;;;5035715;28;20021;-81
2023/11/23 08:29:32;;;;;;;8.02;5.60;;;;;;;;;;5031867;28;20043;-79
2023/11/23 08:31:59;;;;;;;7.78;5.75;;;;;;;;;;5047965;28;20063;-80
2023/11/23 08:34:25;;;;;;;8.35;6.18;;;;;;;;;;5024762;28;20022;-81
2023/11/23 08:36:52;;;;;;;10.07;6.07;;;;;;;;;;5027099;28;20025;-81
2023/11/23 08:39:37;;;;;;;9.48;6.75;;;;;;;;;;5032996;28;20022;-81
2023/11/23 08:42:03;;;;;;;7.95;5.53;;;;;;;;;;5038279;28;20025;-77
2023/11/23 08:44:29;;;;;;;9.48;5.47;;;;;;;;;;5055061;28;20099;-79
2023/11/23 08:46:57;;;;;;;7.32;5.47;;;;;;;;;;5034339;28;20036;-79
2023/11/23 08:49:25;;;;;;;8.07;5.43;;;;;;;;;;5030660;28;20169;-78
2023/11/23 08:51:54;;;;;;;8.35;5.68;;;;;;;;;;5028722;28;20021;-82
2023/11/23 08:54:21;;;;;;;8.23;6.03;;;;;;;;;;5028903;28;20029;-83
2023/11/23 08:56:47;;;;;;;8.35;6.18;;;;;;;;;;5025400;28;20040;-83
2023/11/23 08:59:14;;;;;;;10.07;5.65;;;;;;;;;;5059659;28;20029;-82
2023/11/23 09:01:40;;;;;;;11.98;7.10;;;;;;;;;;5058168;28;20039;-83
2023/11/23 09:04:08;;;;;;;8.40;6.03;;;;;;;;;;5026419;28;20044;-81
2023/11/23 09:06:36;;;;;;;9.80;6.25;;;;;;;;;;5044968;28;20045;-80
2023/11/23 09:09:02;;;;;;;11.20;7.50;;;;;;;;;;5025516;28;20041;-81
2023/11/23 09:11:29;;;;;;;9.73;6.78;;;;;;;;;;5030502;28;20022;-82
2023/11/23 09:13:55;;;;;;;11.48;6.55;;;;;;;;;;5041107;28;20021;-80
2023/11/23 09:16:21;;;;;;;10.02;6.28;;;;;;;;;;5047381;28;20029;-82
2023/11/23 09:18:47;;;;;;;9.77;6.20;;;;;;;;;;5050128;28;20054;-80
2023/11/23 09:21:13;;;;;;;8.90;6.13;;;;;;;;;;5046984;28;20025;-81
2023/11/23 09:23:40;;;;;;;9.38;6.22;;;;;;;;;;5022497;28;20488;-80
2023/11/23 09:26:07;;;;;;;7.75;5.78;;;;;;;;;;5022567;28;20044;-80
2023/11/23 09:28:34;;;;;;;6.97;5.38;;;;;;;;;;5030786;28;20117;-81
2023/11/23 09:31:00;;;;;;;6.50;5.10;;;;;;;;;;5030443;28;20025;-80
2023/11/23 09:33:26;;;;;;;5.80;4.65;;;;;;;;;;5030635;28;20025;-80
2023/11/23 09:35:52;;;;;;;7.63;5.68;;;;;;;;;;5034071;28;20032;-79
2023/11/23 09:38:19;;;;;;;8.00;6.03;;;;;;;;;;5046622;28;20021;-79
2023/11/23 09:40:45;;;;;;;8.85;5.82;;;;;;;;;;5055268;28;20423;-79
2023/11/23 09:43:11;;;;;;;6.47;5.10;;;;;;;;;;5056834;28;20051;-79
2023/11/23 09:45:37;;;;;;;6.38;4.93;;;;;;;;;;5031961;28;20033;-79
2023/11/23 09:48:04;;;;;;;7.03;4.70;;;;;;;;;;5034149;28;20109;-80
2023/11/23 09:50:30;;;;;;;6.20;4.40;;;;;;;;;;5042369;28;20018;-78
2023/11/23 09:52:57;;;;;;;4.68;3.83;;;;;;;;;;5043821;28;20060;-78
2023/11/23 09:55:23;;;;;;;6.82;4.75;;;;;;;;;;5048770;28;20087;-78
2023/11/23 09:57:49;;;;;;;5.63;4.25;;;;;;;;;;5045732;28;20013;-78
2023/11/23 10:00:15;;;;;;;7.72;5.60;;;;;;;;;;5031654;28;20117;-79
2023/11/23 10:02:42;;;;;;;8.55;6.15;;;;;;;;;;5040308;28;20033;-79
2023/11/23 10:05:09;;;;;;;8.50;5.95;;;;;;;;;;5039874;28;20415;-79
2023/11/23 10:07:35;;;;;;;8.05;5.85;;;;;;;;;;5035438;28;20064;-79
2023/11/23 10:10:05;;;;;;;7.03;5.53;;;;;;;;;;5039505;28;20036;-80
2023/11/23 10:12:31;;;;;;;8.15;5.93;;;;;;;;;;5051901;28;20048;-80
2023/11/23 10:14:57;;;;;;;7.32;5.47;;;;;;;;;;5054042;28;20040;-80
2023/11/23 10:17:24;;;;;;;7.05;5.47;;;;;;;;;;5039444;28;20028;-79
2023/11/23 10:19:50;;;;;;;8.85;6.18;;;;;;;;;;5050696;28;20057;-79
2023/11/23 10:22:17;;;;;;;9.30;6.28;;;;;;;;;;5039500;28;20026;-79
2023/11/23 10:24:48;;;;;;;7.43;5.32;;;;;;;;;;5027042;28;20488;-79
2023/11/23 10:27:15;;;;;;;8.80;6.40;;;;;;;;;;5032534;28;20025;-79
2023/11/23 10:29:41;;;;;;;8.07;5.13;;;;;;;;;;5042745;28;20061;-79
2023/11/23 10:32:08;;;;;;;7.65;5.70;;;;;;;;;;5042063;28;20044;-78
2023/11/23 10:34:35;;;;;;;7.75;5.63;;;;;;;;;;5032582;28;20041;-78
2023/11/23 10:37:01;;;;;;;7.80;5.50;;;;;;;;;;5041571;28;20025;-78
2023/11/23 10:39:28;;;;;;;7.00;5.35;;;;;;;;;;5051014;28;20139;-80
2023/11/23 10:41:54;;;;;;;7.85;5.30;;;;;;;;;;5044046;28;20025;-79
2023/11/23 10:44:20;;;;;;;9.55;6.05;;;;;;;;;;5036714;28;20075;-79
2023/11/23 10:46:48;;;;;;;7.40;5.10;;;;;;;;;;5047387;28;20033;-79
2023/11/23 10:49:15;;;;;;;7.57;5.03;;;;;;;;;;5038498;28;20032;-79
2023/11/23 10:51:44;;;;;;;5.55;3.53;;;;;;;;;;5058793;28;20021;-83
2023/11/23 10:54:10;;;;;;;8.50;4.60;;;;;;;;;;5050424;28;20027;-82
2023/11/23 10:56:37;;;;;;;5.50;4.13;;;;;;;;;;5062984;28;20061;-81
2023/11/23 10:59:08;;;;;;;7.35;4.68;;;;;;;;;;5060234;28;20026;-80
2023/11/23 11:01:35;;;;;;;6.28;4.32;;;;;;;;;;5055249;28;20029;-79
2023/11/23 11:04:01;;;;;;;6.10;4.10;;;;;;;;;;5035819;28;20026;-80
2023/11/23 11:06:38;;;;;;;6.70;5.22;;;;;;;;;;5028247;28;20117;-81
2023/11/23 11:09:13;;;;;;;10.27;6.47;;;;;;;;;;5027989;28;20029;-80
2023/11/23 11:11:42;;;;;;;10.73;5.22;;;;;;;;;;5027237;28;20045;-81
2023/11/23 11:14:08;;;;;;;8.93;4.57;;;;;;;;;;5054333;28;20036;-80
2023/11/23 11:16:37;;;;;;;9.23;6.05;;;;;;;;;;5042309;28;20026;-80
2023/11/23 11:19:07;;;;;;;6.07;4.85;;;;;;;;;;5040807;28;20025;-80
2023/11/23 11:21:43;;;;;;;6.90;4.63;;;;;;;;;;5053740;28;20017;-80
2023/11/23 11:24:20;;;;;;;7.40;5.68;;;;;;;;;;5045476;28;20045;-79
2023/11/23 11:26:49;;;;;;;7.20;5.22;;;;;;;;;;5047532;28;20105;-80
2023/11/23 11:29:16;;;;;;;5.63;4.53;;;;;;;;;;5044673;28;20029;-80
2023/11/23 11:31:43;;;;;;;4.97;3.83;;;;;;;;;;5052130;28;20074;-79
2023/11/23 11:34:12;;;;;;;5.35;4.43;;;;;;;;;;5052196;28;20026;-81
2023/11/23 11:36:38;;;;;;;6.85;4.88;;;;;;;;;;5041311;28;20290;-80
2023/11/23 11:39:10;;;;;;;7.00;5.05;;;;;;;;;;5042570;28;20025;-79
2023/11/23 11:41:37;;;;;;;5.85;4.38;;;;;;;;;;5045098;28;20029;-80
2023/11/23 11:44:04;;;;;;;6.55;4.68;;;;;;;;;;5048399;28;20090;-81
2023/11/23 11:46:31;;;;;;;5.95;4.47;;;;;;;;;;5044600;28;20053;-80
2023/11/23 11:48:58;;;;;;;7.22;5.05;;;;;;;;;;5046257;28;20028;-79
2023/11/23 11:51:33;;;;;;;6.47;4.22;;;;;;;;;;5052713;28;20047;-80
2023/11/23 11:54:00;;;;;;;5.63;4.38;;;;;;;;;;5036772;28;20045;-81
2023/11/23 11:56:26;;;;;;;4.75;3.80;;;;;;;;;;5036045;28;20037;-81
2023/11/23 11:58:52;;;;;;;6.25;4.63;;;;;;;;;;5038775;28;20030;-80
2023/11/23 12:01:19;;;;;;;5.53;4.30;;;;;;;;;;5041619;28;20022;-81
2023/11/23 12:03:45;;;;;;;6.25;3.95;;;;;;;;;;5046577;28;20030;-80
2023/11/23 12:06:11;;;;;;;5.13;3.95;;;;;;;;;;5031561;28;20087;-79
2023/11/23 12:08:38;;;;;;;5.47;3.95;;;;;;;;;;5051270;28;20093;-80
2023/11/23 12:11:06;;;;;;;6.20;4.35;;;;;;;;;;5053909;28;20021;-81
2023/11/23 12:13:35;;;;;;;7.95;5.10;;;;;;;;;;5052562;28;20069;-81
2023/11/23 12:16:01;;;;;;;8.50;5.80;;;;;;;;;;5042885;28;20121;-80
2023/11/23 12:18:31;;;;;;;6.95;5.03;;;;;;;;;;5039290;28;20025;-80
2023/11/23 12:20:57;;;;;;;7.80;5.05;;;;;;;;;;5040104;28;20488;-80
2023/11/23 12:23:23;;;;;;;6.00;4.68;;;;;;;;;;5042315;28;20286;-81
2023/11/23 12:25:51;;;;;;;7.30;5.25;;;;;;;;;;5055406;28;20017;-81
2023/11/23 12:28:20;;;;;;;6.68;4.75;;;;;;;;;;5061059;28;20084;-82
2023/11/23 12:30:46;;;;;;;7.93;4.97;;;;;;;;;;5061490;28;20171;-82
2023/11/23 12:33:12;;;;;;;6.28;4.60;;;;;;;;;;5061196;28;20051;-81
2023/11/23 12:35:39;;;;;;;5.15;4.00;;;;;;;;;;5059531;28;20028;-82
2023/11/23 12:38:08;;;;;;;7.10;4.00;;;;;;;;;;5058180;28;20025;-82
2023/11/23 12:40:34;;;;;;;4.45;3.40;;;;;;;;;;5059579;28;20044;-81
2023/11/23 12:43:00;;;;;;;6.28;4.78;;;;;;;;;;5047107;28;20025;-81
2023/11/23 12:45:27;;;;;;;5.93;4.57;;;;;;;;;;5036348;28;20026;-81
2023/11/23 12:47:53;;;;;;;6.32;4.75;;;;;;;;;;5037269;28;20028;-81
2023/11/23 12:50:21;;;;;;;5.15;4.20;;;;;;;;;;5037650;28;20057;-80
2023/11/23 12:52:48;;;;;;;7.43;5.05;;;;;;;;;;5038694;28;20017;-81
2023/11/23 12:55:18;;;;;;;6.45;5.05;;;;;;;;;;5037209;28;20029;-81
2023/11/23 12:57:44;;;;;;;7.57;5.00;;;;;;;;;;5038886;28;20109;-81
2023/11/23 13:00:15;;;;;;;6.95;5.10;;;;;;;;;;5032244;28;20097;-82
2023/11/23 13:02:41;;;;;;;7.03;5.15;;;;;;;;;;5046910;28;20081;-81
2023/11/23 13:05:08;;;;;;;8.27;5.10;;;;;;;;;;5046065;28;20026;-81
2023/11/23 13:07:35;;;;;;;6.85;5.10;;;;;;;;;;5045706;28;20057;-80
2023/11/23 13:10:02;;;;;;;7.00;5.88;;;;;;;;;;5046695;28;20049;-80
2023/11/23 13:12:28;;;;;;;7.18;5.40;;;;;;;;;;5046674;28;20077;-80
2023/11/23 13:14:56;;;;;;;9.32;5.65;;;;;;;;;;5049556;28;20021;-82
2023/11/23 13:17:23;;;;;;;8.43;5.65;;;;;;;;;;5035899;28;20018;-80
2023/11/23 13:19:49;;;;;;;7.47;4.85;;;;;;;;;;5039099;28;20445;-82
2023/11/23 13:22:16;;;;;;;6.35;5.20;;;;;;;;;;5033509;28;20028;-82
2023/11/23 13:24:42;;;;;;;7.57;5.28;;;;;;;;;;5035353;28;20045;-80
2023/11/23 13:27:08;;;;;;;7.53;5.53;;;;;;;;;;5024324;28;20032;-81
2023/11/23 13:29:35;;;;;;;7.05;5.15;;;;;;;;;;5036068;28;20097;-80
2023/11/23 13:32:05;;;;;;;7.65;5.32;;;;;;;;;;5027368;28;20108;-80
2023/11/23 13:34:36;;;;;;;6.93;5.05;;;;;;;;;;5031436;28;20088;-82
2023/11/23 13:37:04;;;;;;;7.60;5.72;;;;;;;;;;5036222;28;20026;-81
2023/11/23 13:39:31;;;;;;;8.35;6.20;;;;;;;;;;5028542;28;20032;-79
2023/11/23 13:41:57;;;;;;;7.32;6.10;;;;;;;;;;5038383;28;20025;-80
2023/11/23 13:44:24;;;;;;;9.00;6.00;;;;;;;;;;5031229;28;20506;-82
2023/11/23 13:46:51;;;;;;;7.55;5.68;;;;;;;;;;5030678;28;20028;-82
2023/11/23 13:49:18;;;;;;;6.80;5.07;;;;;;;;;;5036802;28;20395;-80
2023/11/23 13:51:44;;;;;;;5.88;4.68;;;;;;;;;;5020617;28;20081;-81
2023/11/23 13:54:11;;;;;;;7.22;5.50;;;;;;;;;;5031050;28;20018;-82
2023/11/23 13:56:37;;;;;;;6.93;5.43;;;;;;;;;;5025050;28;20037;-81
2023/11/23 13:59:05;;;;;;;7.75;5.82;;;;;;;;;;5024123;28;20484;-81
2023/11/23 14:01:31;;;;;;;9.40;6.45;;;;;;;;;;5040440;28;20092;-81
2023/11/23 14:03:57;;;;;;;9.07;5.97;;;;;;;;;;5022942;28;20108;-81
2023/11/23 14:06:23;;;;;;;10.75;7.40;;;;;;;;;;5046607;28;20018;-81
2023/11/23 14:08:50;;;;;;;8.68;6.95;;;;;;;;;;5022943;28;20399;-81
2023/11/23 14:11:18;;;;;;;8.93;7.18;;;;;;;;;;5023885;28;20018;-80
2023/11/23 14:13:44;;;;;;;9.30;7.13;;;;;;;;;;5051050;28;20499;-82
2023/11/23 14:16:10;;;;;;;8.25;6.00;;;;;;;;;;5036929;28;20068;-80
2023/11/23 14:18:41;;;;;;;6.10;4.68;;;;;;;;;;5028579;28;20030;-81
2023/11/23 14:21:08;;;;;;;9.63;6.28;;;;;;;;;;5022391;28;20026;-82
2023/11/23 14:23:34;;;;;;;10.50;7.35;;;;;;;;;;5039920;28;20425;-80
2023/11/23 14:26:00;;;;;;;8.57;6.18;;;;;;;;;;5028518;28;20026;-82
2023/11/23 14:28:26;;;;;;;10.75;8.02;;;;;;;;;;5035937;28;20040;-83
2023/11/23 14:30:55;;;;;;;10.73;6.88;;;;;;;;;;5045975;28;20048;-82
2023/11/23 14:33:21;;;;;;;9.93;6.90;;;;;;;;;;5035634;28;20386;-81